Flight Track Log - Related Links

Times and Time Zones

All times are in EDT time to prevent confusion due to time zone crossing. See the EJA312 flight status page for this flight to view local times or setup timezone preferences in your user account.


Time Position Orientation Groundspeed Altitude Reporting Facility
EDT Latitude Longitude Course Direction KTS MPH feet Rate Location/Type
Mon 05:51:20 PM 32.8500 -96.8333 140° Southeast 159 183 1,500  Level Dallas / Fort Worth TRACON
Mon 05:52:03 PM 32.8167 -96.8000 140° Southeast 193 222 4,300 3,087 Climbing Dallas / Fort Worth TRACON
Mon 05:53:03 PM 32.7833 -96.7333 121° Southeast 256 295 6,800 1,450 Climbing Dallas / Fort Worth TRACON
Mon 05:54:03 PM 32.7167 -96.7333 180° South 246 283 7,200 1,005 Climbing Dallas / Fort Worth TRACON
Mon 05:56:14 PM 32.5625 -96.7972 199° South 294 338 10,000 1,375 Climbing Fort Worth Center
Mon 05:57:15 PM 32.4667 -96.8469 204° Southwest 339 390 11,600 1,350 Climbing Fort Worth Center
Mon 05:58:14 PM 32.3750 -96.8919 203° Southwest 354 407 12,700 1,866 Climbing Fort Worth Center
Mon 05:59:14 PM 32.2875 -96.9317 201° Southwest 354 407 15,300 2,150 Climbing Fort Worth Center
Mon 06:00:14 PM 32.1958 -96.9272 178° South 334 384 17,000 1,500 Climbing Fort Worth Center
Mon 06:01:14 PM 32.0911 -96.9083 171° South 349 402 18,300 2,000 Climbing Fort Worth Center
Mon 06:02:14 PM 31.9908 -96.8917 172° South 367 422 21,000 1,350 Climbing Fort Worth Center
Mon 06:03:14 PM 31.8886 -96.8653 168° South 367 422 21,000  Level Fort Worth Center
Mon 06:04:08 PM 31.8022 -96.8531 173° South 391 450 21,000  Level Houston Center
Mon 06:05:10 PM 31.6919 -96.8333 171° South 395 455 21,000  Level Houston Center
Mon 06:06:12 PM 31.5883 -96.8169 172° South 377 434 21,000  Level Houston Center
Mon 06:07:14 PM 31.4858 -96.8006 172° South 369 425 21,000  Level Houston Center
Mon 06:08:16 PM 31.3681 -96.7825 173° South 362 417 21,000  Level Houston Center
Mon 06:09:18 PM 31.2683 -96.7492 164° South 377 434 21,000  Level Houston Center
Mon 06:10:20 PM 31.1719 -96.6994 156° South 374 430 21,000  Level Houston Center
Mon 06:11:23 PM 31.0767 -96.6506 156° South 369 425 21,000  Level Houston Center
Mon 06:12:25 PM 30.9822 -96.6008 156° South 369 425 21,000  Level Houston Center
Mon 06:13:27 PM 30.8853 -96.5517 156° South 371 427 21,000  Level Houston Center
Mon 06:14:29 PM 30.7897 -96.5031 156° South 371 427 21,000  Level Houston Center
Mon 06:15:31 PM 30.6933 -96.4533 156° South 372 428 21,000 -1,113 Level Houston Center
Mon 06:16:33 PM 30.5767 -96.3922 156° South 389 448 18,700 -2,177 Descending Houston Center
Mon 06:17:35 PM 30.4719 -96.3408 157° South 403 464 16,500 -2,081 Descending Houston Center
Mon 06:18:37 PM 30.3700 -96.2894 156° South 396 456 14,400 -1,984 Descending Houston Center
Mon 06:19:39 PM 30.2728 -96.2406 157° South 381 438 12,400 -2,077 Descending Houston Center
Mon 06:19:55 PM 30.2431 -96.2258 157° South 374 430 11,700 -1,355 Descending Houston Center
Mon 06:20:41 PM 30.1772 -96.1917 156° South 374 430 11,000 -689 Descending Houston Center
Mon 06:20:56 PM 30.1486 -96.1758 154° Southeast 367 422 11,000 -97 Level Houston Center
Mon 06:21:43 PM 30.0872 -96.1428 155° Southeast 369 425 10,900  Descending Houston Center
Mon 06:21:57 PM 30.0497 -96.1244 157° South 367 422 11,000  Climbing Houston Center
Mon 06:22:45 PM 29.9950 -96.0936 154° Southeast 366 421 10,900 -677 Descending Houston Center
Mon 06:22:59 PM 29.9597 -96.0767 157° South 355 409 10,300 -1,742 Descending Houston Center
Mon 06:23:47 PM 29.9017 -96.0450 155° Southeast 295 339 9,100 -1,475 Descending Houston Center
Mon 06:24:00 PM 29.8869 -96.0367 154° Southeast 278 320 8,800 -1,452 Descending Houston Center
Mon 06:24:49 PM 29.8294 -96.0061 155° Southeast 284 327 7,600 -1,475 Descending Houston Center
Mon 06:25:01 PM 29.8144 -95.9992 158° South 287 330 7,300 -581 Descending Houston Center
Mon 06:25:51 PM 29.7564 -95.9642 152° Southeast 282 325 7,000 -295 Descending Houston Center
Mon 06:26:02 PM 29.7431 -95.9497 137° Southeast 294 338 7,000 -97 Level Houston Center
Mon 06:26:53 PM 29.7000 -95.9014 136° Southeast 285 328 6,900 -295 Descending Houston Center
Mon 06:27:03 PM 29.6889 -95.8839 126° Southeast 277 319 6,700 -871 Descending Houston Center
Mon 06:27:55 PM 29.6508 -95.8339 131° Southeast 275 316 6,000 -689 Descending Houston Center
Mon 06:28:04 PM 29.6392 -95.8197 133° Southeast 273 314 6,000  Level Houston Center
Mon 06:29:06 PM 29.6189 -95.7333 105° East 293 337 6,000  Level Houston Center
Mon 06:29:59 PM 29.6417 -95.6714 67° East 287 330 6,000  Level Houston Center
Mon 06:30:07 PM 29.6467 -95.6436 78° East 285 328 6,000 -590 Level Houston Center
Mon 06:31:00 PM 29.6628 -95.5839 73° East 285 328 5,400 -1,082 Descending Houston Center
Mon 06:31:08 PM 29.6703 -95.5567 72° East 276 318 4,900 -1,913 Descending Houston Center
Mon 06:32:09 PM 29.6900 -95.4725 75° East 275 316 3,200 -1,500 Descending Houston Center
Mon 06:33:04 PM 29.7061 -95.4033 75° East 266 306 2,000 -1,286 Descending Houston Center
Mon 06:33:05 PM 29.7067 -95.4031 23° Northeast 213 245 2,000 -290 Level Houston Center
Mon 06:34:06 PM 29.7039 -95.3481 93° East 142 163 1,700 -585 Descending Houston Center
Mon 06:35:08 PM 29.6781 -95.3175 134° Southeast 128 147 800 -726 Descending Houston Center
Mon 06:36:10 PM 29.6569 -95.2936 135° Southeast 109 125 200 -581 Descending Houston Center
Mon 06:38:00 PM 29.6454 -95.2789 115° Southeast  Level Estimated

Login

Don't have an account? Register now (free) for customized features, flight alerts, and more!